Latest Coastal Weather Observations for Williamtown

IDN60701

Issued at 9:22 pm EDT Monday 26 January 2015 (issued every 10 minutes, with the page automatically refreshed every 10 minutes)

About coastal observations | Map of coastal stations | Coastal observations for NSW | Marine services | Other Formats
Station Details ID: 061078 Name: WILLIAMTOWN RAAF Lat: -32.79 Lon: 151.84 Height: 9.0 m
Data from the previous 72 hours. | See also: Recent months at Williamtown
Date/Time
EDT
Temp

°C
Wind Pressure Rain
since 9am
mm
Weather Cloud Vis
km
Sea
Height
m
Swell
Dir
 
Speed
knots
Gust
knots
hPa Trend Height
m
Period
s
Dir
26/09:00pm 21.4 SE 8 10 1013.6 - 0.4 - Cloudy 10 - - - -
26/08:30pm 21.0 SE 10 14 1013.1 - 0.4 - Partly cloudy 10 - - - -
26/08:00pm 20.9 SSE 11 15 1012.8 - 0.4 - Partly cloudy 10 - - - -
26/07:30pm 20.9 SSE 12 15 1012.3 - 0.4 - Partly cloudy 10 - - - -
26/07:21pm 21.0 SSE 13 16 1012.3 - 0.4 - Mostly clear 10 - - - -
26/07:00pm 21.3 SE 10 13 1012.1 - 0.4 Drizzle Mostly clear 6 - - - -
26/06:30pm 21.4 SE 9 12 1012.4 - 0.4 - Mostly clear 10 - - - -
26/06:00pm 21.0 ESE 10 15 1011.9 - 0.4 - Cloudy 10 - - - -
26/05:30pm 22.1 SE 14 18 1011.7 - 0.4 Drizzle Partly cloudy 10 - - - -
26/05:14pm 21.7 ESE 12 16 1011.7 - 0.4 - Partly cloudy 10 - - - -
26/05:00pm 21.9 SE 12 18 1012.1 - 0.4 - Partly cloudy 6 - - - -
26/04:59pm 21.9 SE 11 18 1012.2 - 0.4 - Partly cloudy 6 - - - -
26/04:30pm 22.5 S 11 15 1012.1 - 0.4 - Cloudy 10 - - - -
26/04:00pm 22.4 SE 14 17 1011.6 - 0.4 - Partly cloudy 10 - - - -
26/03:30pm 22.6 SE 13 16 1011.7 - 0.4 - Partly cloudy 10 - - - -
26/03:00pm 22.3 ESE 14 18 1011.8 R 0.4 Distant precip. Mostly cloudy 15 - - - -
26/02:30pm 22.2 ESE 12 16 1011.7 - 0.4 - Partly cloudy 10 - - - -
26/02:00pm 21.7 ESE 13 19 1011.9 - 0.4 Drizzle Partly cloudy 9 - - - -
26/01:30pm 21.6 ESE 12 16 1011.8 - 0.4 Drizzle Partly cloudy 9 - - - -
26/01:15pm 21.7 SE 13 18 1012.2 - 0.4 Drizzle Partly cloudy 6 - - - -
26/01:00pm 22.0 SSE 13 17 1012.3 - 0.4 - Partly cloudy 10 - - - -
26/12:30pm 22.8 SSE 10 14 1012.1 - 0.4 - Mostly clear 10 - - - -
26/12:00pm 22.7 ESE 11 16 1012.2 R 0.4 Distant precip. Mostly cloudy 15 - - - -
26/11:30am 22.6 ESE 8 10 1012.4 - 0.4 - Partly cloudy 10 - - - -
26/11:00am 22.5 SE 7 14 1012.2 - 0.4 Drizzle Partly cloudy 9 - - - -
26/10:30am 22.8 SSE 6 8 1012.2 - 0.4 Drizzle Partly cloudy 8 - - - -
26/10:00am 22.6 SSE 8 12 1012.2 - 0.0 Drizzle Partly cloudy 10 - - - -
26/09:30am 22.3 SSW 6 7 1011.8 - 0.0 - Mostly clear 10 - - - -
26/09:00am 21.9 SSW 7 9 1011.4 R 2.4 Drizzle Mostly cloudy 15 - - - -
26/08:30am 21.8 S 7 10 1011.0 - 2.4 Showers Mostly clear 10 - - - -
26/08:16am 21.5 SSW 7 9 1011.2 - 2.4 Drizzle Partly cloudy 9 - - - -
26/08:00am 21.3 SSW 7 10 1011.2 - 2.2 Drizzle Mostly cloudy 8 - - - -
26/07:41am 21.1 SSE 7 9 1011.1 - 2.0 Showers Partly cloudy 6 - - - -
26/07:30am 21.1 SSW 10 15 1011.0 - 2.0 Drizzle Partly cloudy 8 - - - -
26/07:00am 21.4 SSW 9 13 1010.5 - 1.8 Showers Partly cloudy 6 - - - -
26/06:00am 22.5 S 9 10 1009.6 R 1.8 Showers Mostly cloudy 10 - - - -
26/05:37am 22.6 SSE 11 14 1009.3 - 1.6 - Partly cloudy 8 - - - -
26/05:30am 22.4 S 6 9 1009.2 - 1.6 - Partly cloudy 7 - - - -
26/05:22am 22.2 SSW 5 6 1009.1 - 1.6 - Partly cloudy 6 - - - -
26/05:00am 22.4 S 7 9 1008.9 - 1.4 - Partly cloudy 9 - - - -
26/04:51am 22.4 SSE 9 13 1008.8 - 1.4 - Partly cloudy 8 - - - -
26/04:30am 22.4 S 9 15 1008.8 - 1.0 - Partly cloudy 5 - - - -
26/04:17am 22.5 S 7 11 1008.7 - 0.4 - Partly cloudy 6 - - - -
26/04:00am 22.5 SSW 9 12 1008.8 - 0.2 - Partly cloudy 8 - - - -
26/03:30am 22.3 SSW 9 13 1008.8 - 0.2 - Partly cloudy 8 - - - -
26/03:06am 22.4 S 11 14 1008.7 - 0.0 - Partly cloudy 10 - - - -
26/03:00am 22.4 S 11 15 1008.7 - 0.0 - Cloudy 9 - - - -
26/02:30am 22.6 S 14 19 1008.6 - 0.0 - Partly cloudy 10 - - - -
26/02:00am 23.4 S 14 19 1008.3 - 0.0 - Partly cloudy 10 - - - -
26/01:30am 23.5 S 16 20 1008.1 - 0.0 - Partly cloudy 10 - - - -
26/01:00am 24.0 S 16 22 1008.1 - 0.0 - Cloudy 10 - - - -
26/12:30am 24.2 SSW 16 21 1008.1 - 0.0 - Partly cloudy 10 - - - -
26/12:08am 24.3 S 18 22 1007.8 - 0.0 - Partly cloudy 10 - - - -
26/12:00am 24.4 SSW 16 22 1007.8 - 0.0 - Cloudy 10 - - - -
 
Date/Time
EDT
Temp

°C
Wind Pressure Rain
since 9am
mm
Weather Cloud Vis
km
Sea
Height
m
Swell
Dir
 
Speed
knots
Gust
knots
hPa Trend Height
m
Period
s
Dir
25/11:30pm 24.3 SSW 16 20 1007.6 - 0.0 - Partly cloudy 10 - - - -
25/11:00pm 24.2 SSW 16 23 1007.5 - 0.0 - - 10 - - - -
25/10:30pm 24.1 S 16 22 1007.1 - 0.0 - Partly cloudy 10 - - - -
25/10:00pm 27.6 S 16 21 1006.1 - 0.0 - Partly cloudy 10 - - - -
25/09:55pm 26.6 S 15 21 1005.9 - 0.0 - Partly cloudy 10 - - - -
25/09:30pm 27.9 E 7 10 1004.8 - 0.0 - Partly cloudy 10 - - - -
25/09:00pm 27.6 E 10 14 1004.2 - 0.0 - Cloudy 10 - - - -
25/08:30pm 27.8 ENE 8 11 1003.4 - 0.0 - Partly cloudy 10 - - - -
25/08:00pm 28.2 ENE 7 10 1003.0 - 0.0 - - 10 - - - -
25/07:30pm 29.1 ENE 8 12 1002.8 - 0.0 - Partly cloudy 10 - - - -
25/07:00pm 31.0 ENE 10 14 1002.5 - 0.0 - - 10 - - - -
25/06:30pm 32.4 E 7 9 1002.1 - 0.0 - Partly cloudy 10 - - - -
25/06:00pm 34.9 NW 7 12 1001.7 - 0.0 - - 10 - - - -
25/05:30pm 35.1 WNW 9 12 1001.4 - 0.0 - - 10 - - - -
25/05:00pm 35.3 NW 12 17 1001.3 - 0.0 - - 10 - - - -
25/04:30pm 35.0 WNW 13 17 1001.5 - 0.0 - - 10 - - - -
25/04:00pm 34.2 N 7 11 1001.6 - 0.0 - Partly cloudy 10 - - - -
25/03:30pm 34.4 NW 6 10 1002.0 - 0.0 - Partly cloudy 10 - - - -
25/03:00pm 33.8 NNW 11 13 1002.2 - 0.0 - - 10 - - - -
25/02:30pm 33.7 NW 15 18 1002.4 - 0.0 - Partly cloudy 10 - - - -
25/02:00pm 32.6 W 9 13 1002.6 - 0.0 - Partly cloudy 10 - - - -
25/01:30pm 33.4 WNW 8 13 1002.8 - 0.0 - Partly cloudy 10 - - - -
25/01:00pm 32.4 W 10 16 1003.0 - 0.0 - - 10 - - - -
25/12:30pm 32.9 W 11 16 1003.0 - 0.0 - - 10 - - - -
25/12:00pm 32.1 WNW 14 20 1003.2 - 0.0 - - 10 - - - -
25/11:30am 30.9 NW 15 19 1003.4 - 0.0 - - 10 - - - -
25/11:00am 30.3 WNW 14 19 1003.5 - 0.0 - - 10 - - - -
25/10:30am 29.4 WNW 15 20 1003.4 - 0.0 - - 10 - - - -
25/10:00am 27.8 WNW 12 17 1003.7 - 0.0 - - 10 - - - -
25/09:30am 26.5 WNW 15 20 1003.9 - 0.0 - - 10 - - - -
25/09:00am 25.1 NW 11 16 1003.9 - 0.2 - - 10 - - - -
25/08:30am 22.9 NW 11 15 1004.1 - 0.2 - - 10 - - - -
25/08:00am 22.9 NW 9 15 1004.0 - 0.2 - - 10 - - - -
25/07:30am 22.5 WNW 9 13 1003.8 - 0.2 - - 10 - - - -
25/07:00am 22.4 W 7 10 1003.4 - 0.2 - - 10 - - - -
25/06:30am 20.6 WNW 5 8 1003.1 - 0.2 - - 10 - - - -
25/06:00am 20.4 WNW 8 11 1003.1 - 0.2 - - 10 - - - -
25/05:30am 20.5 NW 7 8 1002.9 - 0.2 - - 10 - - - -
25/05:00am 20.9 NW 6 7 1002.7 - 0.2 - - 10 - - - -
25/04:30am 21.1 NNW 6 7 1002.6 - 0.2 - - 10 - - - -
25/04:00am 21.4 NNW 7 9 1002.6 - 0.2 - - 10 - - - -
25/03:30am 21.3 NNW 7 9 1002.9 - 0.2 - - 10 - - - -
25/03:00am 21.2 NNW 6 7 1003.1 - 0.2 - - 10 - - - -
25/02:30am 21.4 NW 9 11 1003.8 - 0.2 - Partly cloudy 10 - - - -
25/02:00am 21.8 WNW 10 13 1004.5 - 0.0 - Partly cloudy 10 - - - -
25/01:30am 22.5 NW 8 10 1004.9 - 0.0 - Partly cloudy 10 - - - -
25/01:00am 23.3 W 5 7 1005.3 - 0.0 - - 10 - - - -
25/12:30am 23.4 W 5 7 1006.1 - 0.0 - Partly cloudy 10 - - - -
25/12:00am 23.5 WNW 2 4 1006.3 - 0.0 - Cloudy 10 - - - -
 
Date/Time
EDT
Temp

°C
Wind Pressure Rain
since 9am
mm
Weather Cloud Vis
km
Sea
Height
m
Swell
Dir
 
Speed
knots
Gust
knots
hPa Trend Height
m
Period
s
Dir
24/11:30pm 23.6 WNW 7 8 1006.6 - 0.0 - Partly cloudy 10 - - - -
24/11:00pm 23.8 ENE 3 5 1006.0 - 0.0 - - 10 - - - -
24/10:30pm 23.9 ENE 5 7 1005.7 - 0.0 - - 10 - - - -
24/10:00pm 24.0 ENE 6 8 1005.6 - 0.0 - - 10 - - - -
24/09:30pm 24.1 ENE 8 12 1005.3 - 0.0 - - 10 - - - -
24/09:00pm 24.3 E 10 14 1004.7 - 0.0 - - 10 - - - -
24/08:30pm 24.7 ENE 9 14 1004.5 - 0.0 - - 10 - - - -
24/08:00pm 25.0 ENE 10 14 1004.0 - 0.0 - - 10 - - - -
24/07:30pm 25.6 ENE 12 16 1003.8 - 0.0 - - 10 - - - -
24/07:00pm 26.8 ENE 12 18 1003.6 - 0.0 - - 10 - - - -
24/06:30pm 27.2 ENE 13 19 1003.3 - 0.0 - - 10 - - - -
24/06:00pm 27.8 E 14 20 1003.4 - 0.0 - - 10 - - - -
24/05:30pm 28.2 ENE 15 19 1003.6 - 0.0 - - 10 - - - -
24/05:00pm 28.4 ENE 15 20 1003.7 - 0.0 - - 10 - - - -
24/04:30pm 29.1 ENE 14 19 1004.1 - 0.0 - - 10 - - - -
24/04:00pm 29.2 NE 13 18 1004.3 - 0.0 - - 10 - - - -
24/03:30pm 30.0 ENE 12 16 1004.7 - 0.0 - - 10 - - - -
24/03:00pm 30.6 ENE 11 17 1005.2 - 0.0 - Cloudy 10 - - - -
24/02:30pm 30.4 ESE 13 18 1005.4 - 0.0 - - 10 - - - -
24/02:00pm 30.0 ESE 14 17 1005.8 - 0.0 - Partly cloudy 10 - - - -
24/01:30pm 29.9 ESE 14 17 1006.1 - 0.0 - - 10 - - - -
24/01:00pm 30.0 ESE 8 14 1006.3 - 0.0 - Cloudy 10 - - - -
24/12:30pm 29.7 ENE 2 5 1006.6 - 0.0 - Partly cloudy 10 - - - -
24/12:00pm 29.3 NE 8 14 1007.0 - 0.0 - Cloudy 10 - - - -
24/11:30am 28.5 NE 7 10 1007.5 - 0.0 - Partly cloudy 10 - - - -
24/11:00am 28.6 NE 8 11 1007.8 - 0.0 - - 10 - - - -
24/10:30am 28.3 NE 8 12 1007.9 - 0.0 - - 10 - - - -
24/10:00am 27.4 NNE 8 10 1008.0 - 0.0 - - 10 - - - -
24/09:30am 26.9 NNE 9 12 1008.3 - 0.0 - - 10 - - - -
24/09:00am 26.1 NE 8 11 1008.1 - 0.0 - - 10 - - - -
24/08:30am 25.0 NE 7 10 1008.0 - 0.0 - - 10 - - - -
24/08:00am 23.8 NNE 6 8 1007.8 - 0.0 - - 10 - - - -
24/07:30am 22.7 NE 1 6 1007.7 - 0.0 - - 10 - - - -
24/07:00am 21.4 CALM 0 0 1007.7 - 0.0 - - 10 - - - -
24/06:30am 20.5 CALM 0 0 1007.2 - 0.0 - - 10 - - - -
24/06:00am 20.5 ENE 1 4 1007.1 - 0.0 - - 10 - - - -
24/05:30am 20.8 CALM 0 0 1007.0 - 0.0 - - 10 - - - -
24/05:00am 21.4 CALM 0 0 1006.9 - 0.0 - - 10 - - - -
24/04:30am 21.8 CALM 0 0 1006.7 - 0.0 - - 10 - - - -
24/04:00am 22.0 NE 7 9 1006.6 - 0.0 - - 10 - - - -
24/03:30am 21.7 NE 6 8 1006.7 - 0.0 - - 10 - - - -
24/03:00am 22.0 NE 5 6 1006.7 - 0.0 - - 10 - - - -
24/02:30am 22.4 NE 5 7 1007.0 - 0.0 - - 10 - - - -
24/02:00am 22.8 NNE 6 8 1007.2 - 0.0 - - 10 - - - -
24/01:30am 22.9 NE 7 10 1007.3 - 0.0 - - 10 - - - -
24/01:00am 23.1 NE 8 13 1007.5 - 0.0 - - 10 - - - -
24/12:30am 23.2 NE 9 13 1007.6 - 0.0 - - 10 - - - -
24/12:00am 23.5 NE 8 14 1007.6 - 0.0 - - 10 - - - -
 
Date/Time
EDT
Temp

°C
Wind Pressure Rain
since 9am
mm
Weather Cloud Vis
km
Sea
Height
m
Swell
Dir
 
Speed
knots
Gust
knots
hPa Trend Height
m
Period
s
Dir
23/11:30pm 23.6 NE 10 15 1007.6 - 0.0 - - 10 - - - -
23/11:00pm 23.8 NE 9 13 1007.7 - 0.0 - - 10 - - - -
23/10:30pm 24.0 NE 9 13 1007.7 - 0.0 - - 10 - - - -
23/10:00pm 24.3 NE 9 13 1007.5 - 0.0 - - 10 - - - -
23/09:30pm 24.6 NE 9 14 1007.3 - 0.0 - - 10 - - - -

Other Formats:

Comma delimited format used in spreadsheet applications
http://www.bom.gov.au/fwo/IDN60701/IDN60701.94776.axf

JavaScript Object Notation format (JSON) in row-major order
http://www.bom.gov.au/fwo/IDN60701/IDN60701.94776.json